createdAt,value
2023-02-12T00:00:04.259Z,100383.63
2023-02-12T00:03:17.866Z,100384.50
2023-02-12T00:06:19.554Z,100385.38
2023-02-12T00:09:21.122Z,100382.75
2023-02-12T00:12:22.689Z,100387.16
2023-02-12T00:15:24.669Z,100383.63
2023-02-12T00:18:27.831Z,100389.81
2023-02-12T00:21:29.410Z,100393.34
2023-02-12T00:24:31.184Z,100380.09
2023-02-12T00:27:33.026Z,100389.81
2023-02-12T00:30:35.431Z,100388.03
2023-02-12T00:33:38.406Z,100390.66
2023-02-12T00:36:41.411Z,100393.31
2023-02-12T00:39:43.512Z,100392.47
2023-02-12T00:42:45.829Z,100390.66
2023-02-12T00:45:47.698Z,100394.22
2023-02-12T00:48:51.073Z,100399.53
2023-02-12T00:51:54.980Z,100395.97
2023-02-12T00:54:56.542Z,100408.38
2023-02-12T00:57:58.067Z,100403.06
2023-02-12T01:00:59.667Z,100397.78
2023-02-12T01:04:02.764Z,100402.19
2023-02-12T01:07:04.308Z,100407.47
2023-02-12T01:10:06.942Z,100413.66
2023-02-12T01:13:10.936Z,100408.34
2023-02-12T01:16:16.983Z,100414.53
2023-02-12T01:19:20.055Z,100403.94
2023-02-12T01:22:21.721Z,100411.00
2023-02-12T01:25:24.618Z,100409.22
2023-02-12T01:28:26.336Z,100411.88
2023-02-12T01:31:29.111Z,100411.00
2023-02-12T01:34:32.399Z,100417.16
2023-02-12T01:37:35.137Z,100419.81
2023-02-12T01:40:37.421Z,100415.41
2023-02-12T01:43:39.429Z,100411.00
2023-02-12T01:46:41.488Z,100420.72
2023-02-12T01:49:46.533Z,100414.53
2023-02-12T01:52:51.461Z,100422.47
2023-02-12T01:55:55.483Z,100416.28
2023-02-12T01:58:57.918Z,100418.94
2023-02-12T02:02:00.540Z,100419.84
2023-02-12T02:05:04.174Z,100411.00
2023-02-12T02:08:05.895Z,100418.06
2023-02-12T02:11:27.506Z,100415.41
2023-02-12T02:14:35.029Z,100407.47
2023-02-12T02:17:53.063Z,100409.25
2023-02-12T02:21:13.363Z,100399.53
2023-02-12T02:24:35.934Z,100409.22
2023-02-12T02:27:43.262Z,100402.19
2023-02-12T02:30:50.446Z,100405.72
2023-02-12T02:33:55.509Z,100403.06
2023-02-12T02:37:01.710Z,100401.28
2023-02-12T02:40:07.625Z,100398.66
2023-02-12T02:43:11.439Z,100391.56
2023-02-12T02:46:17.880Z,100396.00
2023-02-12T02:49:21.739Z,100397.72
2023-02-12T02:52:26.703Z,100396.88
2023-02-12T02:55:30.793Z,100402.19
2023-02-12T02:58:36.002Z,100410.13
2023-02-12T03:01:43.277Z,100407.47
2023-02-12T03:04:46.632Z,100403.06
2023-02-12T03:07:52.601Z,100399.53
2023-02-12T03:10:56.647Z,100403.03
2023-02-12T03:14:02.940Z,100405.69
2023-02-12T03:17:08.932Z,100408.34
2023-02-12T03:20:12.980Z,100413.63
2023-02-12T03:23:18.151Z,100417.16
2023-02-12T03:26:22.161Z,100412.75
2023-02-12T03:29:23.940Z,100408.34
2023-02-12T03:32:31.011Z,100408.34
2023-02-12T03:35:34.300Z,100414.53
2023-02-12T03:38:38.812Z,100412.75
2023-02-12T03:41:43.263Z,100409.22
2023-02-12T03:44:48.954Z,100410.09
2023-02-12T03:47:59.408Z,100406.56
2023-02-12T03:51:03.979Z,100416.28
2023-02-12T03:54:07.885Z,100414.53
2023-02-12T03:57:12.380Z,100421.59
2023-02-12T04:00:16.172Z,100424.25
2023-02-12T04:03:19.213Z,100421.59
2023-02-12T04:06:21.720Z,100424.25
2023-02-12T04:09:24.432Z,100433.06
2023-02-12T04:12:35.073Z,100435.72
2023-02-12T04:15:44.162Z,100435.72
2023-02-12T04:18:49.712Z,100442.78
2023-02-12T04:21:59.650Z,100432.19
2023-02-12T04:25:11.044Z,100433.94
2023-02-12T04:28:18.166Z,100432.19
2023-02-12T04:31:23.876Z,100437.50
2023-02-12T04:34:33.102Z,100441.91
2023-02-12T04:37:38.098Z,100450.75
2023-02-12T04:40:40.879Z,100449.84
2023-02-12T04:43:42.573Z,100456.91
2023-02-12T04:46:44.351Z,100446.31
2023-02-12T04:49:47.302Z,100447.19
2023-02-12T04:52:48.938Z,100455.13
2023-02-12T04:55:50.903Z,100452.47
2023-02-12T04:58:53.707Z,100453.34
2023-02-12T05:01:55.446Z,100462.22
2023-02-12T05:04:58.456Z,100460.44
2023-02-12T05:08:00.109Z,100462.22
2023-02-12T05:11:05.733Z,100457.81
2023-02-12T05:14:07.632Z,100460.44
2023-02-12T05:17:09.308Z,100454.25
2023-02-12T05:20:13.304Z,100456.00
2023-02-12T05:23:14.935Z,100460.47
2023-02-12T05:26:17.642Z,100462.22
2023-02-12T05:29:19.425Z,100456.03
2023-02-12T05:32:21.053Z,100463.97
2023-02-12T05:35:24.167Z,100459.56
2023-02-12T05:38:25.903Z,100462.22
2023-02-12T05:41:27.854Z,100461.31
2023-02-12T05:44:29.662Z,100469.25
2023-02-12T05:47:31.560Z,100473.66
2023-02-12T05:50:34.888Z,100466.59
2023-02-12T05:53:43.216Z,100464.84
2023-02-12T05:56:46.569Z,100457.78
2023-02-12T05:59:48.254Z,100469.25
2023-02-12T06:02:50.221Z,100457.78
2023-02-12T06:05:54.115Z,100471.03
2023-02-12T06:08:56.572Z,100478.09
2023-02-12T06:11:58.224Z,100468.38
2023-02-12T06:15:00.013Z,100471.03
2023-02-12T06:18:01.741Z,100468.38
2023-02-12T06:21:08.050Z,100473.66
2023-02-12T06:24:09.881Z,100476.31
2023-02-12T06:27:11.564Z,100477.22
2023-02-12T06:30:14.103Z,100473.69
2023-02-12T06:33:15.672Z,100481.63
2023-02-12T06:36:18.825Z,100483.38
2023-02-12T06:39:20.494Z,100478.97
2023-02-12T06:42:22.060Z,100486.91
2023-02-12T06:45:23.691Z,100484.28
2023-02-12T06:48:25.230Z,100489.56
2023-02-12T06:51:29.002Z,100494.00
2023-02-12T06:54:30.737Z,100497.53
2023-02-12T06:57:32.641Z,100498.41
2023-02-12T07:00:34.441Z,100512.53
2023-02-12T07:03:37.010Z,100510.75
2023-02-12T07:06:40.087Z,100505.47
2023-02-12T07:09:41.714Z,100518.72
2023-02-12T07:12:43.350Z,100517.81
2023-02-12T07:15:45.155Z,100530.19
2023-02-12T07:18:46.974Z,100530.19
2023-02-12T07:21:49.961Z,100540.78
2023-02-12T07:24:52.017Z,100540.78
2023-02-12T07:27:53.801Z,100536.38
2023-02-12T07:30:55.526Z,100550.50
2023-02-12T07:33:58.188Z,100542.56
2023-02-12T07:37:01.493Z,100551.38
2023-02-12T07:40:03.225Z,100555.81
2023-02-12T07:43:04.918Z,100561.97
2023-02-12T07:46:12.062Z,100566.41
2023-02-12T07:49:14.619Z,100556.69
2023-02-12T07:52:17.551Z,100561.13
2023-02-12T07:55:19.926Z,100555.84
2023-02-12T07:58:21.509Z,100569.09
2023-02-12T08:01:23.789Z,100560.25
2023-02-12T08:04:25.847Z,100562.03
2023-02-12T08:07:29.509Z,100565.56
2023-02-12T08:10:32.478Z,100572.63
2023-02-12T08:13:34.247Z,100570.84
2023-02-12T08:16:36.693Z,100573.50
2023-02-12T08:19:38.331Z,100577.03
2023-02-12T08:22:41.518Z,100573.53
2023-02-12T08:25:43.074Z,100577.06
2023-02-12T08:28:45.483Z,100577.06
2023-02-12T08:31:48.140Z,100579.72
2023-02-12T08:34:49.803Z,100580.59
2023-02-12T08:37:53.317Z,100586.81
2023-02-12T08:40:55.544Z,100586.81
2023-02-12T08:43:58.626Z,100587.72
2023-02-12T08:47:00.410Z,100586.81
2023-02-12T08:50:02.373Z,100586.78
2023-02-12T08:53:05.264Z,100595.63
2023-02-12T08:59:27.573Z,100585.94
2023-02-12T09:02:29.169Z,100586.78
2023-02-12T09:05:30.868Z,100589.47
2023-02-12T09:08:34.032Z,100593.00
2023-02-12T09:11:35.801Z,100593.91
2023-02-12T09:14:37.564Z,100595.66
2023-02-12T09:17:41.154Z,100595.66
2023-02-12T09:20:43.958Z,100603.63
2023-02-12T09:23:47.321Z,100600.06
2023-02-12T09:26:48.860Z,100608.03
2023-02-12T09:29:50.407Z,100603.66
2023-02-12T09:32:52.333Z,100612.50
2023-02-12T09:35:54.197Z,100615.16
2023-02-12T09:38:59.324Z,100608.09
2023-02-12T09:42:15.552Z,100617.81
2023-02-12T09:45:20.263Z,100608.09
2023-02-12T09:48:32.903Z,100612.53
2023-02-12T09:51:35.171Z,100609.91
2023-02-12T09:54:39.540Z,100618.72
2023-02-12T09:57:41.916Z,100616.97
2023-02-12T10:00:44.765Z,100617.84
2023-02-12T10:03:47.520Z,100612.56
2023-02-12T10:06:55.795Z,100615.22
2023-02-12T10:10:09.452Z,100616.97
2023-02-12T10:13:16.937Z,100609.91
2023-02-12T10:16:21.383Z,100611.69
2023-02-12T10:19:27.635Z,100607.28
2023-02-12T10:22:33.352Z,100615.25
2023-02-12T10:25:42.889Z,100616.13
2023-02-12T10:28:44.740Z,100611.72
2023-02-12T10:31:50.064Z,100621.44
2023-02-12T10:34:52.758Z,100615.22
2023-02-12T10:37:58.268Z,100618.75
2023-02-12T10:41:02.005Z,100621.41
2023-02-12T10:44:03.820Z,100624.06
2023-02-12T10:47:06.370Z,100619.63
2023-02-12T10:50:16.620Z,100619.63
2023-02-12T10:53:20.888Z,100616.09
2023-02-12T10:56:27.369Z,100618.75
2023-02-12T10:59:29.215Z,100615.25
2023-02-12T11:02:31.986Z,100626.75
2023-02-12T11:05:35.895Z,100617.00
2023-02-12T11:08:39.114Z,100618.81
2023-02-12T11:11:42.540Z,100618.78
2023-02-12T11:14:48.520Z,100620.53
2023-02-12T11:17:55.755Z,100619.66
2023-02-12T11:21:00.091Z,100617.00
2023-02-12T11:24:20.598Z,100613.47
2023-02-12T11:27:24.680Z,100612.56
2023-02-12T11:30:26.827Z,100612.56
2023-02-12T11:33:32.805Z,100613.47
2023-02-12T11:36:36.186Z,100616.13
2023-02-12T11:39:39.149Z,100611.69
2023-02-12T11:42:47.624Z,100612.59
2023-02-12T11:45:52.629Z,100605.53
2023-02-12T11:48:56.404Z,100599.34
2023-02-12T11:52:00.482Z,100605.53
2023-02-12T11:55:04.921Z,100605.53
2023-02-12T11:58:13.966Z,100608.19
2023-02-12T12:01:19.638Z,100598.47
2023-02-12T12:04:23.071Z,100605.53
2023-02-12T12:07:26.700Z,100606.44
2023-02-12T12:10:33.976Z,100606.44
2023-02-12T12:13:39.147Z,100608.19
2023-02-12T12:17:02.513Z,100596.69
2023-02-12T12:20:06.851Z,100603.78
2023-02-12T12:23:11.199Z,100598.47
2023-02-12T12:26:15.985Z,100592.25
2023-02-12T12:29:22.070Z,100596.69
2023-02-12T12:32:26.478Z,100596.72
2023-02-12T12:35:36.938Z,100590.53
2023-02-12T12:38:45.195Z,100585.22
2023-02-12T12:41:55.875Z,100587.84
2023-02-12T12:45:06.128Z,100581.66
2023-02-12T12:48:13.037Z,100585.22
2023-02-12T12:51:24.002Z,100587.84
2023-02-12T12:54:33.232Z,100576.34
2023-02-12T12:57:44.370Z,100578.13
2023-02-12T13:01:00.831Z,100581.69
2023-02-12T13:04:08.859Z,100579.03
2023-02-12T13:07:14.760Z,100576.38
2023-02-12T13:10:19.787Z,100578.13
2023-02-12T13:13:26.612Z,100572.81
2023-02-12T13:16:31.124Z,100572.81
2023-02-12T13:19:38.431Z,100572.81
2023-02-12T13:22:43.756Z,100563.97
2023-02-12T13:25:49.678Z,100555.09
2023-02-12T13:28:53.875Z,100555.13
2023-02-12T13:31:58.348Z,100559.53
2023-02-12T13:35:01.345Z,100560.41
2023-02-12T13:38:03.323Z,100559.53
2023-02-12T13:41:05.977Z,100560.41
2023-02-12T13:44:14.952Z,100564.84
2023-02-12T13:47:22.682Z,100559.53
2023-02-12T13:50:33.793Z,100554.25
2023-02-12T13:53:45.637Z,100556.88
2023-02-12T13:56:49.364Z,100557.78
2023-02-12T13:59:53.849Z,100551.59
2023-02-12T14:02:57.043Z,100554.25
2023-02-12T14:06:09.641Z,100548.94
2023-02-12T14:09:11.609Z,100546.28
2023-02-12T14:12:15.368Z,100556.00
2023-02-12T14:15:38.059Z,100556.91
2023-02-12T14:18:41.051Z,100553.38
2023-02-12T14:21:43.471Z,100559.56
2023-02-12T14:24:50.521Z,100548.06
2023-02-12T14:27:53.019Z,100560.41
2023-02-12T14:31:13.492Z,100549.81
2023-02-12T14:34:48.515Z,100546.28
2023-02-12T14:37:52.260Z,100551.56
2023-02-12T14:41:33.975Z,100558.66
2023-02-12T14:44:39.163Z,100562.19
2023-02-12T14:47:50.173Z,100558.66
2023-02-12T14:50:53.741Z,100561.31
2023-02-12T14:53:57.349Z,100563.09
2023-02-12T14:57:01.657Z,100563.94
2023-02-12T15:00:19.566Z,100560.41
2023-02-12T15:03:25.401Z,100557.78
2023-02-12T15:06:34.678Z,100563.97
2023-02-12T15:09:42.161Z,100564.84
2023-02-12T15:12:46.278Z,100565.72
2023-02-12T15:15:51.130Z,100556.88
2023-02-12T15:18:55.719Z,100557.78
2023-02-12T15:21:57.882Z,100561.31
2023-02-12T15:25:14.391Z,100555.97
2023-02-12T15:28:19.627Z,100561.28
2023-02-12T15:31:25.541Z,100556.00
2023-02-12T15:34:29.037Z,100556.91
2023-02-12T15:37:31.476Z,100557.78
2023-02-12T15:40:33.529Z,100550.72
2023-02-12T15:43:40.223Z,100554.25
2023-02-12T15:46:52.746Z,100553.34
2023-02-12T15:49:59.423Z,100555.13
2023-02-12T15:53:01.376Z,100554.22
2023-02-12T15:56:03.390Z,100556.88
2023-02-12T15:59:06.633Z,100556.88
2023-02-12T16:02:18.038Z,100553.34
2023-02-12T16:05:19.799Z,100558.66
2023-02-12T16:08:22.584Z,100554.25
2023-02-12T16:11:25.390Z,100560.41
2023-02-12T16:14:32.751Z,100558.66
2023-02-12T16:17:35.401Z,100555.09
2023-02-12T16:20:37.228Z,100556.88
2023-02-12T16:23:39.048Z,100560.41
2023-02-12T16:26:40.822Z,100576.31
2023-02-12T16:29:46.904Z,100563.06
2023-02-12T16:32:49.035Z,100571.03
2023-02-12T16:36:00.125Z,100570.13
2023-02-12T16:39:02.705Z,100562.19
2023-02-12T16:42:04.362Z,100575.44
2023-02-12T16:45:27.699Z,100562.19
2023-02-12T16:48:31.425Z,100569.28
2023-02-12T16:51:34.197Z,100559.56
2023-02-12T16:54:36.048Z,100561.28
2023-02-12T16:57:37.740Z,100563.06
2023-02-12T17:00:39.701Z,100567.50
2023-02-12T17:03:43.427Z,100571.91
2023-02-12T17:06:45.207Z,100567.47
2023-02-12T17:09:46.885Z,100571.88
2023-02-12T17:12:50.978Z,100575.41
2023-02-12T17:15:54.468Z,100573.66
2023-02-12T17:18:57.809Z,100573.66
2023-02-12T17:21:59.575Z,100583.38
2023-02-12T17:25:01.238Z,100580.72
2023-02-12T17:28:02.918Z,100583.38
2023-02-12T17:31:06.389Z,100588.69
2023-02-12T17:34:09.862Z,100599.28
2023-02-12T17:37:11.644Z,100590.44
2023-02-12T17:40:13.270Z,100594.88
2023-02-12T17:43:14.931Z,100606.34
2023-02-12T17:46:18.467Z,100606.34
2023-02-12T17:49:21.745Z,100606.34
2023-02-12T17:52:23.496Z,100606.34
2023-02-12T17:55:25.208Z,100602.81
2023-02-12T17:58:27.256Z,100606.34
2023-02-12T18:01:29.158Z,100601.06
2023-02-12T18:04:36.108Z,100604.59
2023-02-12T18:07:38.472Z,100614.31
2023-02-12T18:10:41.308Z,100605.47
2023-02-12T18:13:42.997Z,100601.06
2023-02-12T18:16:45.029Z,100598.41
2023-02-12T18:19:48.861Z,100596.63
2023-02-12T18:22:50.640Z,100596.63
2023-02-12T18:25:52.524Z,100593.97
2023-02-12T18:28:54.277Z,100595.75
2023-02-12T18:31:56.364Z,100601.06
2023-02-12T18:34:59.588Z,100599.28
2023-02-12T18:38:01.417Z,100596.63
2023-02-12T18:41:06.136Z,100593.09
2023-02-12T18:44:07.752Z,100597.53
2023-02-12T18:47:09.459Z,100594.88
2023-02-12T18:50:12.652Z,100599.28
2023-02-12T18:53:14.291Z,100597.53
2023-02-12T18:56:16.097Z,100595.75
2023-02-12T18:59:17.649Z,100594.88
2023-02-12T19:02:19.394Z,100600.19
2023-02-12T19:05:22.557Z,100594.00
2023-02-12T19:08:24.292Z,100594.00
2023-02-12T19:11:26.911Z,100597.53
2023-02-12T19:14:28.641Z,100596.63
2023-02-12T19:17:30.435Z,100590.44
2023-02-12T19:20:34.012Z,100593.09
2023-02-12T19:23:35.920Z,100595.75
2023-02-12T19:26:37.810Z,100591.34
2023-02-12T19:29:39.440Z,100594.84
2023-02-12T19:32:41.176Z,100593.97
2023-02-12T19:35:45.851Z,100602.78
2023-02-12T19:38:49.199Z,100598.38
2023-02-12T19:41:51.262Z,100588.69
2023-02-12T19:44:53.018Z,100591.34
2023-02-12T19:47:55.345Z,100594.88
2023-02-12T19:50:59.205Z,100596.63
2023-02-12T19:54:01.372Z,100598.41
2023-02-12T19:57:08.692Z,100601.06
2023-02-12T20:00:10.905Z,100603.72
2023-02-12T20:03:13.892Z,100604.59
2023-02-12T20:06:18.954Z,100601.94
2023-02-12T20:09:21.331Z,100607.25
2023-02-12T20:12:23.128Z,100611.66
2023-02-12T20:15:25.548Z,100609.88
2023-02-12T20:18:27.297Z,100617.88
2023-02-12T20:21:30.739Z,100612.56
2023-02-12T20:24:33.682Z,100617.84
2023-02-12T20:27:35.759Z,100611.66
2023-02-12T20:30:39.175Z,100611.66
2023-02-12T20:33:41.718Z,100622.25
2023-02-12T20:36:48.807Z,100613.44
2023-02-12T20:39:50.627Z,100618.75
2023-02-12T20:42:52.514Z,100614.34
2023-02-12T20:45:54.177Z,100615.22
2023-02-12T20:48:57.573Z,100613.44
2023-02-12T20:52:01.629Z,100611.66
2023-02-12T20:55:03.360Z,100613.44
2023-02-12T20:58:04.996Z,100613.44
2023-02-12T21:01:07.933Z,100607.25
2023-02-12T21:04:10.824Z,100613.41
2023-02-12T21:07:13.922Z,100610.75
2023-02-12T21:10:16.009Z,100613.41
2023-02-12T21:13:17.536Z,100607.25
2023-02-12T21:16:20.499Z,100611.66
2023-02-12T21:19:22.694Z,100607.25
2023-02-12T21:22:26.023Z,100611.66
2023-02-12T21:25:27.583Z,100603.72
2023-02-12T21:28:29.623Z,100612.53
2023-02-12T21:31:32.611Z,100607.25
2023-02-12T21:34:34.785Z,100611.66
2023-02-12T21:37:40.412Z,100607.25
2023-02-12T21:40:41.946Z,100604.56
2023-02-12T21:43:44.546Z,100602.78
2023-02-12T21:46:46.506Z,100593.06
2023-02-12T21:49:48.318Z,100599.25
2023-02-12T21:52:57.681Z,100599.19
2023-02-12T21:56:01.681Z,100603.63
2023-02-12T21:59:04.076Z,100602.72
2023-02-12T22:02:14.820Z,100594.78
2023-02-12T22:05:16.738Z,100590.34
2023-02-12T22:08:23.109Z,100592.13
2023-02-12T22:11:24.694Z,100591.25
2023-02-12T22:14:26.380Z,100585.94
2023-02-12T22:17:28.150Z,100579.75
2023-02-12T22:20:29.972Z,100591.25
2023-02-12T22:23:33.178Z,100589.47
2023-02-12T22:26:35.269Z,100583.28
2023-02-12T22:29:37.332Z,100582.41
2023-02-12T22:32:39.528Z,100582.41
2023-02-12T22:35:41.408Z,100577.97
2023-02-12T22:38:46.253Z,100575.38
2023-02-12T22:41:48.193Z,100573.59
2023-02-12T22:44:49.793Z,100578.91
2023-02-12T22:47:51.492Z,100570.94
2023-02-12T22:50:53.207Z,100572.75
2023-02-12T22:53:56.200Z,100578.94
2023-02-12T22:56:57.997Z,100578.06
2023-02-12T22:59:59.889Z,100572.75
2023-02-12T23:03:01.946Z,100575.41
2023-02-12T23:06:04.917Z,100574.53
2023-02-12T23:09:11.831Z,100572.75
2023-02-12T23:12:13.459Z,100578.06
2023-02-12T23:15:15.841Z,100577.13
2023-02-12T23:18:17.575Z,100578.91
2023-02-12T23:21:19.342Z,100570.94
2023-02-12T23:24:22.546Z,100579.78
2023-02-12T23:27:24.124Z,100578.03
2023-02-12T23:30:25.961Z,100567.41
2023-02-12T23:33:27.786Z,100568.25
2023-02-12T23:36:29.485Z,100566.50
2023-02-12T23:39:32.611Z,100560.31
2023-02-12T23:42:34.475Z,100563.84
2023-02-12T23:45:36.008Z,100562.09
2023-02-12T23:48:37.929Z,100561.19
2023-02-12T23:51:39.765Z,100569.16
2023-02-12T23:54:42.931Z,100566.50
2023-02-12T23:57:44.733Z,100560.31
